Time;durP1;ratioP1;P1;durP2;ratioP2;P2;SDS_P1;SDS_P2;PMS_P1;PMS_P2;Temp;Humidity;BMP_temperature;BMP_pressure;BME280_temperature;BME280_humidity;BME280_pressure;Samples;Min_cycle;Max_cycle;Signal;HPM_P1;HPM_P2
2023/08/23 00:00:52;;;;;;;8.13;4.47;;;;;;;;;;5017076;28;20026;-67
2023/08/23 00:03:22;;;;;;;9.93;5.00;;;;;;;;;;5017819;28;20067;-67
2023/08/23 00:05:48;;;;;;;13.38;5.30;;;;;;;;;;5045889;28;21171;-67
2023/08/23 00:08:13;;;;;;;12.88;5.13;;;;;;;;;;5018839;28;20513;-67
2023/08/23 00:10:38;;;;;;;8.30;4.50;;;;;;;;;;5018419;28;20057;-67
2023/08/23 00:13:08;;;;;;;8.00;4.43;;;;;;;;;;5014691;28;20039;-67
2023/08/23 00:15:40;;;;;;;7.70;4.65;;;;;;;;;;5014708;28;20053;-67
2023/08/23 00:18:06;;;;;;;9.82;4.82;;;;;;;;;;5048200;28;20094;-67
2023/08/23 00:20:31;;;;;;;11.48;5.18;;;;;;;;;;5018645;28;20041;-67
2023/08/23 00:22:56;;;;;;;10.68;4.63;;;;;;;;;;5018471;28;20033;-66
2023/08/23 00:25:21;;;;;;;12.02;4.90;;;;;;;;;;5018693;28;22398;-68
2023/08/23 00:27:49;;;;;;;9.98;4.82;;;;;;;;;;5017935;28;20053;-68
2023/08/23 00:30:14;;;;;;;7.55;4.80;;;;;;;;;;5019626;28;20553;-68
2023/08/23 00:32:39;;;;;;;10.38;5.82;;;;;;;;;;5019747;28;20114;-66
2023/08/23 00:35:05;;;;;;;16.98;10.73;;;;;;;;;;5017930;28;22424;-65
2023/08/23 00:37:33;;;;;;;20.80;12.60;;;;;;;;;;5018726;28;21161;-66
2023/08/23 00:39:58;;;;;;;19.58;12.73;;;;;;;;;;5019403;28;20033;-68
2023/08/23 00:42:24;;;;;;;18.88;11.98;;;;;;;;;;5020740;28;20038;-68
2023/08/23 00:44:51;;;;;;;18.05;10.85;;;;;;;;;;5018344;28;20535;-66
2023/08/23 00:47:17;;;;;;;20.05;10.98;;;;;;;;;;5000775;28;20481;-66
2023/08/23 00:49:42;;;;;;;18.17;10.18;;;;;;;;;;5019064;28;20033;-66
2023/08/23 00:52:08;;;;;;;15.75;9.65;;;;;;;;;;5016908;28;20068;-66
2023/08/23 00:54:33;;;;;;;14.60;9.23;;;;;;;;;;5048577;28;20033;-66
2023/08/23 00:57:01;;;;;;;16.67;10.18;;;;;;;;;;5050578;28;20078;-66
2023/08/23 00:59:29;;;;;;;14.90;9.35;;;;;;;;;;5019804;28;20038;-66
2023/08/23 01:01:55;;;;;;;15.90;10.30;;;;;;;;;;5017510;28;20040;-67
2023/08/23 01:04:20;;;;;;;17.80;10.88;;;;;;;;;;5016017;28;20726;-66
2023/08/23 01:06:53;;;;;;;22.38;14.55;;;;;;;;;;5017512;28;20041;-66
2023/08/23 01:09:33;;;;;;;25.80;15.02;;;;;;;;;;5019215;28;20639;-66
2023/08/23 01:12:02;;;;;;;26.15;14.77;;;;;;;;;;5016823;28;20039;-68
2023/08/23 01:14:32;;;;;;;24.13;14.68;;;;;;;;;;5016273;28;20041;-68
2023/08/23 01:16:58;;;;;;;24.90;14.48;;;;;;;;;;5018169;28;20515;-68
2023/08/23 01:19:37;;;;;;;25.80;14.77;;;;;;;;;;4997865;28;20490;-67
2023/08/23 01:22:04;;;;;;;29.73;15.50;;;;;;;;;;5000247;28;20041;-68
2023/08/23 01:24:30;;;;;;;33.88;21.65;;;;;;;;;;4995976;28;20038;-68
2023/08/23 01:26:58;;;;;;;33.63;19.77;;;;;;;;;;5010321;28;20114;-68
2023/08/23 01:29:23;;;;;;;31.25;17.05;;;;;;;;;;5002664;28;20052;-68
2023/08/23 01:31:49;;;;;;;27.50;14.18;;;;;;;;;;5017539;28;20032;-68
2023/08/23 01:34:27;;;;;;;33.75;15.07;;;;;;;;;;5014507;28;20029;-68
2023/08/23 01:36:53;;;;;;;32.10;14.40;;;;;;;;;;5014874;28;20036;-68
2023/08/23 01:39:21;;;;;;;32.33;16.10;;;;;;;;;;5016024;28;20053;-68
2023/08/23 01:41:46;;;;;;;33.58;15.68;;;;;;;;;;5012831;28;20033;-68
2023/08/23 01:44:12;;;;;;;33.38;16.58;;;;;;;;;;5017511;28;20060;-68
2023/08/23 01:46:37;;;;;;;31.60;18.15;;;;;;;;;;5016921;28;20040;-67
2023/08/23 01:49:03;;;;;;;28.73;15.45;;;;;;;;;;5014902;28;20568;-68
2023/08/23 01:51:28;;;;;;;26.92;15.02;;;;;;;;;;5016502;28;20147;-68
2023/08/23 01:53:56;;;;;;;27.88;13.95;;;;;;;;;;5014084;28;20041;-68
2023/08/23 01:56:21;;;;;;;29.73;15.30;;;;;;;;;;5016908;28;20032;-68
2023/08/23 01:58:49;;;;;;;22.73;12.63;;;;;;;;;;5017358;28;20500;-67
2023/08/23 02:01:14;;;;;;;19.58;12.20;;;;;;;;;;5017988;28;20036;-68
2023/08/23 02:03:39;;;;;;;25.08;13.48;;;;;;;;;;5016144;28;20402;-66
2023/08/23 02:06:05;;;;;;;28.65;14.82;;;;;;;;;;5014979;28;20124;-67
2023/08/23 02:08:30;;;;;;;27.65;14.27;;;;;;;;;;5018701;28;20118;-68
2023/08/23 02:10:55;;;;;;;25.02;13.70;;;;;;;;;;5019239;28;20040;-68
2023/08/23 02:13:21;;;;;;;23.70;13.70;;;;;;;;;;5022671;28;20088;-66
2023/08/23 02:15:47;;;;;;;31.65;14.98;;;;;;;;;;5044870;28;20043;-65
2023/08/23 02:18:12;;;;;;;31.92;15.77;;;;;;;;;;5022557;28;20021;-68
2023/08/23 02:20:37;;;;;;;27.30;15.48;;;;;;;;;;5015428;28;20091;-68
2023/08/23 02:23:03;;;;;;;30.92;14.95;;;;;;;;;;5016913;28;20092;-65
2023/08/23 02:25:28;;;;;;;37.97;16.50;;;;;;;;;;5031206;28;22322;-68
2023/08/23 02:27:53;;;;;;;31.63;16.52;;;;;;;;;;5015832;28;20041;-68
2023/08/23 02:30:19;;;;;;;25.40;15.23;;;;;;;;;;5017429;28;20095;-68
2023/08/23 02:32:44;;;;;;;30.27;14.88;;;;;;;;;;5017459;28;21203;-66
2023/08/23 02:35:09;;;;;;;28.58;16.30;;;;;;;;;;5017401;28;20066;-68
2023/08/23 02:37:37;;;;;;;29.55;15.45;;;;;;;;;;5014432;28;20040;-68
2023/08/23 02:40:03;;;;;;;27.40;13.80;;;;;;;;;;5017114;28;20123;-68
2023/08/23 02:42:31;;;;;;;21.23;12.95;;;;;;;;;;5014418;28;20436;-68
2023/08/23 02:44:56;;;;;;;26.70;14.68;;;;;;;;;;5017060;28;20092;-68
2023/08/23 02:47:25;;;;;;;29.17;14.00;;;;;;;;;;5036706;28;20039;-68
2023/08/23 02:49:50;;;;;;;27.30;15.07;;;;;;;;;;5046530;28;20417;-68
2023/08/23 02:52:16;;;;;;;32.13;17.25;;;;;;;;;;5016629;28;20033;-68
2023/08/23 02:54:41;;;;;;;33.25;17.65;;;;;;;;;;5021248;28;20033;-66
2023/08/23 02:57:06;;;;;;;32.35;18.52;;;;;;;;;;5018578;28;20041;-66
2023/08/23 02:59:31;;;;;;;30.73;17.70;;;;;;;;;;5020436;28;20029;-67
2023/08/23 03:01:57;;;;;;;33.60;17.38;;;;;;;;;;5015380;28;20060;-67
2023/08/23 03:04:22;;;;;;;30.63;16.42;;;;;;;;;;5021147;28;20041;-66
2023/08/23 03:06:47;;;;;;;28.23;17.60;;;;;;;;;;5023306;28;20193;-67
2023/08/23 03:09:15;;;;;;;29.25;18.30;;;;;;;;;;5017571;28;20521;-67
2023/08/23 03:11:42;;;;;;;25.45;15.65;;;;;;;;;;5017883;28;20475;-67
2023/08/23 03:14:08;;;;;;;30.20;16.55;;;;;;;;;;5017005;28;20601;-67
2023/08/23 03:16:36;;;;;;;31.67;16.17;;;;;;;;;;5016329;28;20041;-67
2023/08/23 03:19:01;;;;;;;24.42;14.55;;;;;;;;;;5019655;28;20429;-67
2023/08/23 03:21:26;;;;;;;29.20;17.25;;;;;;;;;;5019520;28;20041;-67
2023/08/23 03:23:51;;;;;;;31.02;18.17;;;;;;;;;;5019662;28;20048;-67
2023/08/23 03:26:19;;;;;;;31.20;18.30;;;;;;;;;;5023661;28;20122;-67
2023/08/23 03:28:44;;;;;;;34.65;19.05;;;;;;;;;;5020277;28;20037;-66
2023/08/23 03:31:09;;;;;;;29.67;18.20;;;;;;;;;;5014244;28;20083;-66
2023/08/23 03:33:35;;;;;;;30.70;17.52;;;;;;;;;;5017651;28;20049;-66
2023/08/23 03:36:00;;;;;;;27.92;17.10;;;;;;;;;;5018279;28;20170;-66
2023/08/23 03:38:28;;;;;;;28.20;17.10;;;;;;;;;;5018485;28;20163;-66
2023/08/23 03:40:54;;;;;;;31.77;18.40;;;;;;;;;;5018159;28;20115;-67
2023/08/23 03:43:20;;;;;;;32.30;19.10;;;;;;;;;;5018909;28;20761;-67
2023/08/23 03:45:48;;;;;;;32.53;19.50;;;;;;;;;;5016574;28;20760;-67
2023/08/23 03:48:14;;;;;;;35.78;19.52;;;;;;;;;;5018127;28;22309;-67
2023/08/23 03:50:43;;;;;;;37.40;23.05;;;;;;;;;;5017201;28;20037;-66
2023/08/23 03:53:08;;;;;;;42.40;22.98;;;;;;;;;;5017143;28;20048;-67
2023/08/23 03:55:36;;;;;;;36.47;22.73;;;;;;;;;;5019059;28;20033;-66
2023/08/23 03:58:02;;;;;;;35.22;21.23;;;;;;;;;;5034045;28;20040;-68
2023/08/23 04:00:29;;;;;;;45.83;22.08;;;;;;;;;;5022245;28;20048;-68
2023/08/23 04:02:54;;;;;;;36.67;21.23;;;;;;;;;;5017843;28;20403;-67
2023/08/23 04:05:20;;;;;;;36.72;21.67;;;;;;;;;;5019265;28;20049;-67
2023/08/23 04:07:45;;;;;;;41.72;23.05;;;;;;;;;;5019818;28;20041;-68
2023/08/23 04:10:10;;;;;;;39.40;22.13;;;;;;;;;;5018322;27;20114;-67
2023/08/23 04:12:36;;;;;;;37.42;22.33;;;;;;;;;;5017720;28;20033;-67
2023/08/23 04:15:01;;;;;;;39.55;22.85;;;;;;;;;;5017554;28;20136;-67
2023/08/23 04:17:28;;;;;;;42.22;23.10;;;;;;;;;;5019301;28;20045;-67
2023/08/23 04:19:54;;;;;;;41.90;23.13;;;;;;;;;;5016095;28;20021;-68
2023/08/23 04:22:19;;;;;;;36.25;22.50;;;;;;;;;;5017909;27;20075;-67
2023/08/23 04:24:44;;;;;;;34.45;21.50;;;;;;;;;;5020536;28;21033;-67
2023/08/23 04:27:10;;;;;;;41.22;22.25;;;;;;;;;;5018422;28;20682;-68
2023/08/23 04:29:35;;;;;;;38.83;24.92;;;;;;;;;;5018781;28;20029;-68
2023/08/23 04:32:01;;;;;;;42.85;25.38;;;;;;;;;;5018312;28;20037;-68
2023/08/23 04:34:26;;;;;;;44.30;26.35;;;;;;;;;;5018057;28;20036;-68
2023/08/23 04:36:51;;;;;;;47.83;26.50;;;;;;;;;;5019019;28;20051;-68
2023/08/23 04:39:17;;;;;;;40.42;24.88;;;;;;;;;;5017347;28;20034;-68
2023/08/23 04:41:42;;;;;;;41.10;23.63;;;;;;;;;;5017169;28;20159;-68
2023/08/23 04:44:07;;;;;;;42.10;22.63;;;;;;;;;;5017421;28;20041;-68
2023/08/23 04:46:33;;;;;;;40.97;22.20;;;;;;;;;;5017664;28;20187;-67
2023/08/23 04:48:58;;;;;;;46.20;25.83;;;;;;;;;;5018449;28;20041;-68
2023/08/23 04:51:23;;;;;;;40.53;22.45;;;;;;;;;;5018106;28;20124;-67
2023/08/23 04:53:49;;;;;;;38.70;22.52;;;;;;;;;;5018191;28;20040;-67
2023/08/23 04:56:16;;;;;;;39.47;22.55;;;;;;;;;;5017050;28;20067;-68
2023/08/23 04:58:41;;;;;;;45.72;24.75;;;;;;;;;;5017378;28;20082;-68
2023/08/23 05:01:09;;;;;;;38.83;24.45;;;;;;;;;;5017206;28;20037;-66
2023/08/23 05:03:35;;;;;;;45.53;29.23;;;;;;;;;;5020116;28;20111;-68
2023/08/23 05:06:01;;;;;;;46.33;28.75;;;;;;;;;;5015510;28;20921;-68
2023/08/23 05:08:27;;;;;;;43.10;25.58;;;;;;;;;;5015723;28;20117;-68
2023/08/23 05:10:53;;;;;;;41.17;21.60;;;;;;;;;;5017958;28;20761;-68
2023/08/23 05:13:19;;;;;;;32.50;19.77;;;;;;;;;;5023480;28;20122;-67
2023/08/23 05:15:44;;;;;;;33.20;21.70;;;;;;;;;;5018466;28;20085;-67
2023/08/23 05:18:09;;;;;;;42.55;25.52;;;;;;;;;;5018953;28;20489;-67
2023/08/23 05:20:37;;;;;;;43.25;26.85;;;;;;;;;;5011013;28;22293;-67
2023/08/23 05:23:03;;;;;;;41.42;24.27;;;;;;;;;;5016536;28;20078;-67
2023/08/23 05:25:28;;;;;;;38.65;22.45;;;;;;;;;;5018546;28;20037;-67
2023/08/23 05:27:56;;;;;;;37.42;22.83;;;;;;;;;;5015393;28;20036;-67
2023/08/23 05:30:21;;;;;;;38.78;23.63;;;;;;;;;;5027687;28;20057;-67
2023/08/23 05:32:47;;;;;;;39.15;24.00;;;;;;;;;;5029169;28;20037;-67
2023/08/23 05:35:14;;;;;;;39.17;21.63;;;;;;;;;;5000769;28;22246;-67
2023/08/23 05:37:40;;;;;;;34.90;21.90;;;;;;;;;;4997116;28;20128;-68
2023/08/23 05:40:05;;;;;;;39.15;21.40;;;;;;;;;;4997380;28;20041;-67
2023/08/23 05:42:33;;;;;;;33.33;19.95;;;;;;;;;;4996994;28;20034;-67
2023/08/23 05:44:59;;;;;;;31.63;19.65;;;;;;;;;;5016279;28;20762;-66
2023/08/23 05:47:24;;;;;;;29.30;20.50;;;;;;;;;;5016550;28;20021;-66
2023/08/23 05:49:52;;;;;;;40.78;23.08;;;;;;;;;;5002437;28;20032;-67
2023/08/23 05:52:17;;;;;;;37.50;22.60;;;;;;;;;;5015069;28;20661;-66
2023/08/23 05:54:43;;;;;;;29.67;19.65;;;;;;;;;;5017447;28;20030;-66
2023/08/23 05:57:08;;;;;;;35.30;20.25;;;;;;;;;;5018339;28;20025;-66
2023/08/23 05:59:33;;;;;;;35.53;20.23;;;;;;;;;;5017821;28;20473;-66
2023/08/23 06:01:59;;;;;;;35.22;19.98;;;;;;;;;;5016651;28;20029;-66
2023/08/23 06:04:24;;;;;;;35.20;20.45;;;;;;;;;;5016298;28;20144;-66
2023/08/23 06:06:49;;;;;;;34.55;17.38;;;;;;;;;;5015918;28;20045;-66
2023/08/23 06:09:18;;;;;;;29.77;16.63;;;;;;;;;;5017540;28;20114;-66
2023/08/23 06:11:43;;;;;;;25.05;14.82;;;;;;;;;;5015896;28;20041;-67
2023/08/23 06:14:17;;;;;;;25.25;13.68;;;;;;;;;;5016084;28;20099;-66
2023/08/23 06:16:43;;;;;;;25.83;13.55;;;;;;;;;;5015650;28;20086;-66
2023/08/23 06:19:08;;;;;;;26.15;12.82;;;;;;;;;;5013820;28;20037;-66
2023/08/23 06:21:33;;;;;;;20.60;12.90;;;;;;;;;;5015020;28;20028;-66
2023/08/23 06:24:01;;;;;;;26.17;12.80;;;;;;;;;;5019996;28;22166;-67
2023/08/23 06:26:27;;;;;;;24.00;13.57;;;;;;;;;;5017539;28;20073;-66
2023/08/23 06:28:55;;;;;;;29.88;16.42;;;;;;;;;;5020219;28;20037;-66
2023/08/23 06:31:21;;;;;;;31.77;17.90;;;;;;;;;;5020758;28;20036;-67
2023/08/23 06:33:47;;;;;;;30.63;19.27;;;;;;;;;;5019462;28;20048;-67
2023/08/23 06:36:12;;;;;;;34.35;21.65;;;;;;;;;;5018592;28;20562;-67
2023/08/23 06:38:37;;;;;;;27.40;15.57;;;;;;;;;;5009466;28;20091;-66
2023/08/23 06:41:02;;;;;;;21.10;13.02;;;;;;;;;;5018082;28;20151;-66
2023/08/23 06:43:28;;;;;;;28.85;18.63;;;;;;;;;;5022396;28;20047;-67
2023/08/23 06:45:53;;;;;;;32.80;20.20;;;;;;;;;;5024873;28;20469;-68
2023/08/23 06:48:19;;;;;;;30.13;19.80;;;;;;;;;;5020123;28;20521;-67
2023/08/23 06:50:44;;;;;;;29.27;18.17;;;;;;;;;;5017846;28;20041;-65
2023/08/23 06:53:10;;;;;;;28.35;18.90;;;;;;;;;;5016641;28;20496;-67
2023/08/23 06:55:41;;;;;;;25.55;15.70;;;;;;;;;;5022430;28;20041;-67
2023/08/23 06:58:07;;;;;;;23.98;15.18;;;;;;;;;;5051837;28;20039;-66
2023/08/23 07:00:34;;;;;;;20.38;11.25;;;;;;;;;;5017843;28;20037;-66
2023/08/23 07:02:59;;;;;;;15.32;10.00;;;;;;;;;;5017327;28;20065;-67
2023/08/23 07:05:24;;;;;;;13.00;7.63;;;;;;;;;;5018916;28;20490;-65
2023/08/23 07:07:50;;;;;;;15.32;7.40;;;;;;;;;;5019015;28;20041;-65
2023/08/23 07:10:15;;;;;;;14.57;9.88;;;;;;;;;;5018885;28;20041;-67
2023/08/23 07:12:40;;;;;;;11.85;6.75;;;;;;;;;;5051473;28;20182;-68
2023/08/23 07:15:08;;;;;;;12.20;5.25;;;;;;;;;;5019752;28;20072;-66
2023/08/23 07:17:35;;;;;;;11.35;4.70;;;;;;;;;;5019015;28;20071;-67
2023/08/23 07:20:00;;;;;;;11.63;3.83;;;;;;;;;;5017019;28;20041;-66
2023/08/23 07:22:25;;;;;;;7.68;2.72;;;;;;;;;;5017936;28;20044;-65
2023/08/23 07:24:50;;;;;;;12.15;2.75;;;;;;;;;;5022938;28;20123;-65
2023/08/23 07:27:16;;;;;;;11.07;3.13;;;;;;;;;;5017499;28;20041;-64
2023/08/23 07:29:41;;;;;;;10.70;2.97;;;;;;;;;;5018973;28;20048;-66
2023/08/23 07:32:09;;;;;;;7.25;2.60;;;;;;;;;;5016462;28;20036;-66
2023/08/23 07:34:34;;;;;;;9.10;2.78;;;;;;;;;;5018522;28;20433;-66
2023/08/23 07:36:59;;;;;;;14.02;3.65;;;;;;;;;;5018336;28;20486;-66
2023/08/23 07:39:27;;;;;;;10.85;3.40;;;;;;;;;;5017130;28;20033;-66
2023/08/23 07:41:52;;;;;;;8.30;3.33;;;;;;;;;;5018921;28;20862;-66
2023/08/23 07:44:18;;;;;;;9.68;3.55;;;;;;;;;;5016585;28;20037;-66
2023/08/23 07:46:43;;;;;;;10.63;3.65;;;;;;;;;;5050295;28;20044;-66
2023/08/23 07:49:11;;;;;;;8.55;3.45;;;;;;;;;;5016577;28;20041;-65
2023/08/23 07:51:36;;;;;;;14.38;3.47;;;;;;;;;;5016143;28;20067;-66
2023/08/23 07:54:03;;;;;;;12.05;3.22;;;;;;;;;;5018187;28;20060;-65
2023/08/23 07:56:28;;;;;;;13.13;3.25;;;;;;;;;;5020075;28;20033;-66
2023/08/23 07:58:53;;;;;;;10.02;2.92;;;;;;;;;;5017932;28;20114;-66
2023/08/23 08:01:19;;;;;;;11.05;3.40;;;;;;;;;;5018058;28;20025;-66
2023/08/23 08:03:44;;;;;;;13.23;3.40;;;;;;;;;;5019918;28;20879;-65
2023/08/23 08:06:11;;;;;;;12.05;3.08;;;;;;;;;;5021084;28;20045;-65
2023/08/23 08:08:39;;;;;;;9.77;2.95;;;;;;;;;;5018333;28;20049;-67
2023/08/23 08:11:05;;;;;;;8.95;2.92;;;;;;;;;;5012495;28;20101;-66
2023/08/23 08:13:30;;;;;;;10.07;2.78;;;;;;;;;;5015756;28;20037;-65
2023/08/23 08:15:55;;;;;;;10.15;2.72;;;;;;;;;;5016665;28;20041;-67
2023/08/23 08:18:21;;;;;;;14.30;3.17;;;;;;;;;;5013974;28;20116;-67
2023/08/23 08:20:47;;;;;;;10.13;2.72;;;;;;;;;;5017769;28;20103;-65
2023/08/23 08:23:12;;;;;;;8.57;2.72;;;;;;;;;;5015652;28;20037;-67
2023/08/23 08:25:37;;;;;;;11.93;3.00;;;;;;;;;;5013946;28;20106;-65
2023/08/23 08:28:03;;;;;;;7.82;2.60;;;;;;;;;;5018872;28;20490;-64
2023/08/23 08:30:28;;;;;;;11.73;2.95;;;;;;;;;;5017644;28;20061;-65
2023/08/23 08:32:53;;;;;;;7.57;2.65;;;;;;;;;;5014283;28;20493;-64
2023/08/23 08:35:21;;;;;;;12.73;2.70;;;;;;;;;;5017170;28;20112;-65
2023/08/23 08:37:46;;;;;;;10.38;2.67;;;;;;;;;;5049829;28;20040;-63
2023/08/23 08:40:12;;;;;;;8.88;2.53;;;;;;;;;;5015046;28;20037;-66
2023/08/23 08:42:42;;;;;;;10.43;2.92;;;;;;;;;;5014663;28;20037;-64
2023/08/23 08:45:07;;;;;;;16.63;3.08;;;;;;;;;;5015298;28;20047;-65
2023/08/23 08:47:33;;;;;;;14.20;3.15;;;;;;;;;;5016369;28;20746;-66
2023/08/23 08:50:00;;;;;;;10.27;3.15;;;;;;;;;;5015951;28;22191;-65
2023/08/23 08:52:28;;;;;;;10.70;2.80;;;;;;;;;;5016202;28;20059;-63
2023/08/23 08:54:54;;;;;;;11.73;2.90;;;;;;;;;;5015866;28;20653;-64
2023/08/23 08:57:20;;;;;;;10.65;2.90;;;;;;;;;;5017438;28;21286;-63
2023/08/23 08:59:46;;;;;;;12.02;2.70;;;;;;;;;;5017059;28;20042;-64
2023/08/23 09:02:14;;;;;;;13.32;3.03;;;;;;;;;;5016898;28;20036;-66
2023/08/23 09:04:40;;;;;;;10.23;2.97;;;;;;;;;;5015620;28;20037;-64
2023/08/23 09:07:05;;;;;;;11.73;2.70;;;;;;;;;;5016674;28;20102;-63
2023/08/23 09:09:31;;;;;;;12.85;2.92;;;;;;;;;;5015605;28;20660;-65
2023/08/23 09:11:56;;;;;;;10.60;2.83;;;;;;;;;;5014423;28;20039;-64
2023/08/23 09:14:22;;;;;;;10.30;2.60;;;;;;;;;;5014834;28;20033;-66
2023/08/23 09:16:47;;;;;;;10.30;3.28;;;;;;;;;;5015670;28;20036;-64
2023/08/23 09:19:13;;;;;;;12.30;2.95;;;;;;;;;;5012365;28;20119;-69
2023/08/23 09:21:44;;;;;;;10.77;2.50;;;;;;;;;;5014879;28;20463;-66
2023/08/23 09:24:10;;;;;;;8.57;2.80;;;;;;;;;;5012559;28;20146;-65
2023/08/23 09:26:36;;;;;;;11.68;2.95;;;;;;;;;;5003683;28;20057;-65
2023/08/23 09:29:01;;;;;;;9.13;2.67;;;;;;;;;;5013125;28;20049;-66
2023/08/23 09:31:27;;;;;;;10.70;2.83;;;;;;;;;;5014119;28;20044;-65
2023/08/23 09:33:53;;;;;;;10.23;3.03;;;;;;;;;;5016598;28;20040;-64
2023/08/23 09:36:25;;;;;;;11.50;2.70;;;;;;;;;;5020873;28;20099;-64
2023/08/23 09:38:51;;;;;;;12.27;2.75;;;;;;;;;;5017782;28;20239;-63
2023/08/23 09:41:16;;;;;;;16.35;3.20;;;;;;;;;;5050126;28;21030;-63
2023/08/23 09:43:42;;;;;;;7.22;2.50;;;;;;;;;;5017328;28;20179;-64
2023/08/23 09:46:08;;;;;;;11.02;2.40;;;;;;;;;;5017587;28;20048;-64
2023/08/23 09:48:33;;;;;;;8.98;2.65;;;;;;;;;;5046775;28;20040;-62
2023/08/23 09:51:00;;;;;;;9.45;2.55;;;;;;;;;;5016644;28;22340;-64
2023/08/23 09:53:27;;;;;;;11.52;2.63;;;;;;;;;;5017452;28;20706;-63
2023/08/23 09:55:53;;;;;;;9.98;2.67;;;;;;;;;;5030170;28;20036;-64
2023/08/23 09:58:19;;;;;;;11.32;2.92;;;;;;;;;;5013611;28;20040;-64
2023/08/23 10:00:51;;;;;;;10.60;2.78;;;;;;;;;;5015259;28;20063;-64
2023/08/23 10:03:18;;;;;;;10.77;2.50;;;;;;;;;;5037225;28;20037;-64
2023/08/23 10:05:47;;;;;;;9.52;2.35;;;;;;;;;;4983871;28;20096;-64
2023/08/23 10:08:13;;;;;;;9.63;2.53;;;;;;;;;;4998773;28;20037;-64
2023/08/23 10:10:40;;;;;;;8.40;2.53;;;;;;;;;;4996627;28;20079;-65
2023/08/23 10:13:06;;;;;;;10.35;2.80;;;;;;;;;;4990595;28;20034;-68
2023/08/23 10:15:32;;;;;;;10.88;2.55;;;;;;;;;;4992842;28;20063;-69
2023/08/23 10:18:01;;;;;;;8.77;2.50;;;;;;;;;;4995685;28;20660;-69
2023/08/23 10:20:27;;;;;;;8.57;2.78;;;;;;;;;;4996470;28;20118;-70
2023/08/23 10:22:54;;;;;;;10.13;2.15;;;;;;;;;;4996042;28;20073;-70
2023/08/23 10:25:20;;;;;;;8.50;2.50;;;;;;;;;;4996332;28;21697;-69
2023/08/23 10:27:49;;;;;;;7.97;2.13;;;;;;;;;;4993825;28;20041;-69
2023/08/23 10:30:15;;;;;;;11.73;3.25;;;;;;;;;;4995722;28;20049;-71
2023/08/23 10:32:43;;;;;;;6.70;2.50;;;;;;;;;;4996505;28;20034;-71
2023/08/23 10:35:27;;;;;;;12.20;2.80;;;;;;;;;;5011703;28;20127;-70
2023/08/23 10:37:53;;;;;;;8.07;2.45;;;;;;;;;;5015210;28;20033;-71
2023/08/23 10:40:19;;;;;;;7.40;2.40;;;;;;;;;;5016402;28;20136;-70
2023/08/23 10:42:45;;;;;;;10.50;2.65;;;;;;;;;;5016546;28;20041;-69
2023/08/23 10:45:11;;;;;;;8.43;2.42;;;;;;;;;;5015881;28;20049;-69
2023/08/23 10:47:36;;;;;;;10.98;2.72;;;;;;;;;;5016705;28;20041;-68
2023/08/23 10:50:03;;;;;;;7.65;2.30;;;;;;;;;;5015106;28;20145;-69
2023/08/23 10:52:31;;;;;;;9.82;2.90;;;;;;;;;;5010862;28;20025;-70
2023/08/23 10:54:56;;;;;;;9.88;2.70;;;;;;;;;;5015222;28;20033;-69
2023/08/23 10:57:21;;;;;;;9.98;2.10;;;;;;;;;;5047600;28;20052;-70
2023/08/23 10:59:47;;;;;;;8.68;2.60;;;;;;;;;;5014203;28;20179;-70
2023/08/23 11:02:14;;;;;;;10.93;2.60;;;;;;;;;;5015891;28;20048;-70
2023/08/23 11:04:40;;;;;;;8.13;2.13;;;;;;;;;;5015587;28;20149;-70
2023/08/23 11:07:06;;;;;;;10.40;2.72;;;;;;;;;;5018880;28;20041;-70
2023/08/23 11:09:31;;;;;;;11.32;2.60;;;;;;;;;;5018844;28;20041;-67
2023/08/23 11:11:56;;;;;;;9.55;2.20;;;;;;;;;;5020374;28;20063;-70
2023/08/23 11:14:21;;;;;;;7.25;2.40;;;;;;;;;;5021418;28;20036;-70
2023/08/23 11:16:47;;;;;;;7.10;2.58;;;;;;;;;;5018741;28;20033;-70
2023/08/23 11:19:15;;;;;;;7.22;2.70;;;;;;;;;;5016604;28;20606;-70
2023/08/23 11:21:40;;;;;;;10.77;2.33;;;;;;;;;;5052980;28;20202;-70
2023/08/23 11:24:06;;;;;;;6.60;2.10;;;;;;;;;;5052210;28;20509;-70
2023/08/23 11:26:35;;;;;;;9.15;2.17;;;;;;;;;;5021090;28;20494;-71
2023/08/23 11:29:03;;;;;;;7.70;1.95;;;;;;;;;;5019032;28;20096;-71
2023/08/23 11:31:29;;;;;;;5.82;2.00;;;;;;;;;;5020943;28;21028;-67
2023/08/23 11:33:56;;;;;;;7.22;2.00;;;;;;;;;;5024609;28;20082;-71
2023/08/23 11:36:21;;;;;;;7.03;1.75;;;;;;;;;;5020147;28;20124;-68
2023/08/23 11:38:47;;;;;;;5.55;1.80;;;;;;;;;;5022725;28;20166;-70
2023/08/23 11:41:12;;;;;;;4.25;1.40;;;;;;;;;;5024005;28;20071;-69
2023/08/23 11:43:43;;;;;;;6.10;1.63;;;;;;;;;;5017736;28;20044;-69
2023/08/23 11:46:08;;;;;;;4.80;1.40;;;;;;;;;;5018119;28;20049;-68
2023/08/23 11:48:34;;;;;;;3.97;1.40;;;;;;;;;;5018366;28;20100;-71
2023/08/23 11:51:01;;;;;;;5.00;1.38;;;;;;;;;;5023278;28;20036;-69
2023/08/23 11:53:26;;;;;;;8.57;1.60;;;;;;;;;;5019686;28;20041;-69
2023/08/23 11:55:54;;;;;;;4.85;1.60;;;;;;;;;;5020117;28;20029;-71
2023/08/23 11:58:19;;;;;;;5.05;1.20;;;;;;;;;;5017136;28;20042;-67
2023/08/23 12:00:47;;;;;;;5.07;1.48;;;;;;;;;;5050059;28;20560;-69
2023/08/23 12:03:12;;;;;;;4.05;1.48;;;;;;;;;;5006078;28;20044;-68
2023/08/23 12:05:37;;;;;;;5.88;1.35;;;;;;;;;;5016441;28;20065;-69
2023/08/23 12:08:03;;;;;;;5.53;1.50;;;;;;;;;;5015508;28;20044;-68
2023/08/23 12:10:31;;;;;;;5.72;1.10;;;;;;;;;;5017115;28;20059;-69
2023/08/23 12:12:59;;;;;;;4.97;1.10;;;;;;;;;;4999556;28;20466;-70
2023/08/23 12:15:24;;;;;;;8.32;1.55;;;;;;;;;;5018510;28;20107;-70
2023/08/23 12:17:52;;;;;;;4.85;1.10;;;;;;;;;;5016732;28;20039;-69
2023/08/23 12:20:17;;;;;;;2.47;0.93;;;;;;;;;;5017220;28;20037;-71
2023/08/23 12:22:46;;;;;;;4.07;1.20;;;;;;;;;;5020688;28;20037;-70
2023/08/23 12:25:12;;;;;;;3.80;1.10;;;;;;;;;;5047286;28;20037;-71
2023/08/23 12:27:38;;;;;;;5.15;1.17;;;;;;;;;;5018652;28;21967;-70
2023/08/23 12:30:06;;;;;;;5.22;1.30;;;;;;;;;;5020378;28;20033;-70
2023/08/23 12:32:31;;;;;;;3.70;1.35;;;;;;;;;;5016756;28;20034;-69
2023/08/23 12:34:59;;;;;;;4.10;1.45;;;;;;;;;;5017192;28;20029;-68
2023/08/23 12:37:26;;;;;;;4.28;1.40;;;;;;;;;;5017328;28;20216;-69
2023/08/23 12:39:54;;;;;;;5.72;1.50;;;;;;;;;;5018832;28;20037;-67
2023/08/23 12:42:24;;;;;;;4.85;1.50;;;;;;;;;;5019709;28;20144;-70
2023/08/23 12:44:49;;;;;;;6.93;1.38;;;;;;;;;;5016419;28;20509;-69
2023/08/23 12:47:15;;;;;;;5.65;1.30;;;;;;;;;;5020657;28;20110;-69
2023/08/23 12:49:40;;;;;;;7.32;1.42;;;;;;;;;;5015342;28;20418;-68
2023/08/23 12:52:06;;;;;;;8.23;1.60;;;;;;;;;;5020847;28;20033;-69
2023/08/23 12:54:31;;;;;;;6.03;1.45;;;;;;;;;;5016581;28;20037;-69
2023/08/23 12:56:57;;;;;;;4.32;1.48;;;;;;;;;;5016270;28;20121;-70
2023/08/23 12:59:22;;;;;;;4.70;1.30;;;;;;;;;;5048023;28;20036;-71
2023/08/23 13:01:47;;;;;;;6.32;1.20;;;;;;;;;;5005078;28;20570;-71
2023/08/23 13:04:13;;;;;;;5.13;1.27;;;;;;;;;;5016994;28;20135;-67
2023/08/23 13:06:38;;;;;;;5.65;1.20;;;;;;;;;;5016746;28;20406;-66
2023/08/23 13:09:05;;;;;;;3.90;1.05;;;;;;;;;;5017042;28;20034;-70
2023/08/23 13:11:30;;;;;;;3.53;1.05;;;;;;;;;;5016639;28;20036;-68
2023/08/23 13:13:55;;;;;;;4.00;1.40;;;;;;;;;;5017085;28;22368;-74
2023/08/23 13:16:21;;;;;;;4.80;1.45;;;;;;;;;;5019474;28;20037;-67
2023/08/23 13:18:46;;;;;;;5.68;1.50;;;;;;;;;;5017160;28;20445;-69
2023/08/23 13:21:13;;;;;;;5.43;1.40;;;;;;;;;;5016904;28;20037;-65
2023/08/23 13:23:39;;;;;;;4.78;1.70;;;;;;;;;;5018946;28;20036;-68
2023/08/23 13:26:06;;;;;;;3.47;1.55;;;;;;;;;;5016589;28;20433;-65
2023/08/23 13:28:34;;;;;;;3.97;1.30;;;;;;;;;;5015719;28;20351;-67
2023/08/23 13:30:59;;;;;;;5.22;1.17;;;;;;;;;;5018776;28;20372;-66
2023/08/23 13:33:27;;;;;;;5.97;1.40;;;;;;;;;;5014016;28;20188;-68
2023/08/23 13:35:55;;;;;;;3.42;0.93;;;;;;;;;;5016119;28;20457;-66
2023/08/23 13:38:21;;;;;;;3.78;1.10;;;;;;;;;;5017205;28;20047;-66
2023/08/23 13:40:46;;;;;;;5.82;1.45;;;;;;;;;;5017669;28;20036;-66
2023/08/23 13:43:12;;;;;;;4.70;1.33;;;;;;;;;;5013792;28;20182;-67
2023/08/23 13:45:37;;;;;;;4.13;1.27;;;;;;;;;;5048086;28;20049;-68
2023/08/23 13:48:02;;;;;;;5.18;1.50;;;;;;;;;;5030763;28;20041;-67
2023/08/23 13:50:28;;;;;;;6.85;1.35;;;;;;;;;;5019476;28;20044;-69
2023/08/23 13:52:53;;;;;;;5.65;1.30;;;;;;;;;;5017028;28;20092;-71
2023/08/23 13:55:18;;;;;;;4.60;1.50;;;;;;;;;;5016138;28;20037;-69
2023/08/23 13:57:44;;;;;;;3.65;1.08;;;;;;;;;;5016537;28;20634;-69
2023/08/23 14:00:10;;;;;;;5.82;1.25;;;;;;;;;;5016538;28;20054;-71
2023/08/23 14:02:35;;;;;;;5.28;1.30;;;;;;;;;;5016995;28;20399;-70
2023/08/23 14:05:00;;;;;;;4.15;1.02;;;;;;;;;;5016133;28;20673;-68
2023/08/23 14:07:26;;;;;;;2.65;0.90;;;;;;;;;;5016403;28;20045;-70
2023/08/23 14:09:56;;;;;;;3.75;0.85;;;;;;;;;;5018551;28;20033;-70
2023/08/23 14:12:21;;;;;;;4.88;1.10;;;;;;;;;;5015377;28;20140;-69
2023/08/23 14:14:46;;;;;;;5.05;1.10;;;;;;;;;;5016142;28;20091;-69
2023/08/23 14:17:12;;;;;;;6.30;1.30;;;;;;;;;;5017210;28;25115;-69
2023/08/23 14:19:47;;;;;;;4.78;1.10;;;;;;;;;;5016154;28;20477;-70
2023/08/23 14:22:15;;;;;;;3.53;0.88;;;;;;;;;;5012856;28;20568;-70